createdAt,value
2023-05-23T00:02:35.122Z,9.65
2023-05-23T00:07:41.033Z,9.63
2023-05-23T00:12:48.403Z,9.54
2023-05-23T00:17:53.852Z,9.41
2023-05-23T00:22:59.389Z,9.31
2023-05-23T00:28:06.232Z,9.27
2023-05-23T00:33:14.542Z,9.26
2023-05-23T00:38:20.174Z,9.21
2023-05-23T00:43:25.752Z,9.16
2023-05-23T00:48:31.437Z,9.09
2023-05-23T00:53:37.120Z,9.01
2023-05-23T00:58:42.562Z,8.92
2023-05-23T01:03:48.938Z,8.87
2023-05-23T01:08:54.628Z,8.84
2023-05-23T01:14:05.170Z,8.79
2023-05-23T01:19:38.495Z,8.69
2023-05-23T01:24:57.571Z,8.59
2023-05-23T01:30:04.849Z,8.54
2023-05-23T01:35:12.817Z,8.53
2023-05-23T01:40:18.337Z,8.53
2023-05-23T01:45:26.565Z,8.48
2023-05-23T01:50:33.458Z,8.40
2023-05-23T01:55:40.829Z,8.28
2023-05-23T02:00:47.251Z,8.22
2023-05-23T02:05:53.788Z,8.24
2023-05-23T02:10:59.315Z,8.25
2023-05-23T02:16:05.115Z,8.19
2023-05-23T02:21:10.675Z,8.17
2023-05-23T02:26:16.757Z,8.15
2023-05-23T02:31:22.636Z,8.07
2023-05-23T02:36:27.992Z,8.04
2023-05-23T02:41:33.922Z,8.06
2023-05-23T02:46:39.408Z,8.04
2023-05-23T02:51:44.900Z,8.01
2023-05-23T02:56:52.530Z,7.95
2023-05-23T03:01:58.249Z,7.91
2023-05-23T03:07:05.410Z,7.96
2023-05-23T03:12:12.660Z,8.05
2023-05-23T03:17:18.037Z,8.16
2023-05-23T03:22:23.455Z,8.24
2023-05-23T03:27:28.906Z,8.31
2023-05-23T03:32:34.387Z,8.46
2023-05-23T03:37:40.489Z,8.72
2023-05-23T03:42:48.431Z,9.04
2023-05-23T03:47:54.518Z,9.24
2023-05-23T03:53:00.191Z,9.42
2023-05-23T03:58:06.386Z,9.71
2023-05-23T04:03:14.824Z,10.05
2023-05-23T04:08:22.270Z,10.42
2023-05-23T04:13:31.145Z,10.81
2023-05-23T04:18:39.328Z,11.24
2023-05-23T04:23:46.224Z,12.47
2023-05-23T04:28:54.399Z,15.93
2023-05-23T04:34:00.912Z,17.38
2023-05-23T04:39:06.945Z,18.23
2023-05-23T04:44:18.213Z,20.42
2023-05-23T04:49:42.315Z,19.79
2023-05-23T04:54:48.803Z,19.25
2023-05-23T04:59:54.379Z,19.33
2023-05-23T05:05:00.034Z,21.88
2023-05-23T05:10:07.038Z,24.94
2023-05-23T05:15:14.131Z,27.50
2023-05-23T05:20:21.805Z,29.62
2023-05-23T05:25:32.251Z,31.18
2023-05-23T05:30:39.028Z,32.38
2023-05-23T05:35:45.189Z,33.47
2023-05-23T05:40:51.175Z,34.37
2023-05-23T05:45:57.109Z,35.07
2023-05-23T05:51:03.491Z,35.70
2023-05-23T05:56:11.518Z,36.11
2023-05-23T06:01:18.331Z,36.99
2023-05-23T06:06:24.055Z,37.73
2023-05-23T06:11:29.876Z,38.28
2023-05-23T06:16:36.675Z,38.96
2023-05-23T06:21:41.110Z,39.25
2023-05-23T06:26:47.981Z,39.31
2023-05-23T06:31:53.411Z,39.45
2023-05-23T06:36:59.103Z,39.54
2023-05-23T06:42:05.128Z,39.82
2023-05-23T06:47:18.783Z,39.89
2023-05-23T06:52:24.245Z,39.74
2023-05-23T06:57:30.421Z,39.86
2023-05-23T07:02:36.354Z,40.22
2023-05-23T07:07:44.060Z,40.59
2023-05-23T07:12:49.630Z,41.00
2023-05-23T07:17:55.782Z,41.08
2023-05-23T07:23:01.696Z,40.78
2023-05-23T07:28:08.078Z,39.98
2023-05-23T07:33:14.630Z,39.48
2023-05-23T07:38:21.991Z,40.24
2023-05-23T07:43:26.003Z,40.37
2023-05-23T07:48:32.282Z,40.01
2023-05-23T07:53:40.379Z,40.10
2023-05-23T07:58:48.867Z,40.25
2023-05-23T08:03:53.464Z,40.06
2023-05-23T08:09:06.560Z,40.07
2023-05-23T08:14:12.465Z,39.82
2023-05-23T08:19:18.148Z,39.69
2023-05-23T08:24:24.604Z,39.89
2023-05-23T08:29:32.629Z,39.60
2023-05-23T08:34:38.847Z,39.51
2023-05-23T08:39:44.529Z,39.45
2023-05-23T08:45:12.143Z,39.48
2023-05-23T08:50:21.883Z,39.15
2023-05-23T08:55:31.695Z,39.07
2023-05-23T09:00:37.033Z,38.87
2023-05-23T09:05:43.424Z,38.41
2023-05-23T09:10:50.042Z,38.03
2023-05-23T09:16:07.778Z,37.70
2023-05-23T09:21:18.936Z,37.33
2023-05-23T09:26:50.822Z,37.20
2023-05-23T09:32:10.316Z,37.50
2023-05-23T09:37:19.573Z,37.66
2023-05-23T09:42:25.840Z,37.52
2023-05-23T09:47:31.764Z,35.25
2023-05-23T09:52:39.309Z,34.95
2023-05-23T09:57:49.941Z,35.61
2023-05-23T10:03:02.411Z,36.23
2023-05-23T10:08:10.907Z,36.59
2023-05-23T10:13:17.037Z,36.43
2023-05-23T10:18:26.930Z,35.45
2023-05-23T10:23:34.066Z,34.71
2023-05-23T10:28:40.703Z,34.55
2023-05-23T10:33:54.974Z,33.80
2023-05-23T10:39:06.378Z,33.71
2023-05-23T10:44:18.475Z,34.31
2023-05-23T10:49:42.392Z,34.25
2023-05-23T10:54:50.699Z,33.19
2023-05-23T10:59:56.343Z,32.70
2023-05-23T11:05:22.295Z,32.89
2023-05-23T11:10:30.662Z,32.37
2023-05-23T11:15:45.883Z,31.84
2023-05-23T11:20:54.536Z,31.87
2023-05-23T11:25:58.753Z,31.30
2023-05-23T11:31:04.830Z,31.14
2023-05-23T11:36:11.251Z,30.89
2023-05-23T11:41:17.085Z,30.34
2023-05-23T11:46:22.592Z,30.05
2023-05-23T11:51:28.919Z,30.24
2023-05-23T11:56:41.097Z,30.67
2023-05-23T12:01:46.764Z,30.99
2023-05-23T12:06:52.844Z,30.75
2023-05-23T12:11:58.373Z,30.64
2023-05-23T12:17:15.952Z,30.35
2023-05-23T12:22:25.728Z,30.44
2023-05-23T12:27:34.337Z,30.57
2023-05-23T12:32:42.027Z,30.31
2023-05-23T12:37:48.581Z,29.40
2023-05-23T12:42:55.825Z,29.21
2023-05-23T12:48:02.400Z,29.33
2023-05-23T12:53:08.261Z,29.09
2023-05-23T12:58:13.705Z,28.86
2023-05-23T13:03:19.432Z,28.66
2023-05-23T13:08:25.896Z,28.53
2023-05-23T13:13:33.891Z,28.44
2023-05-23T13:18:39.397Z,28.50
2023-05-23T13:23:45.025Z,28.83
2023-05-23T13:28:51.059Z,29.08
2023-05-23T13:33:56.509Z,29.27
2023-05-23T13:39:02.073Z,29.38
2023-05-23T13:44:08.066Z,29.20
2023-05-23T13:49:13.720Z,29.04
2023-05-23T13:54:19.171Z,28.88
2023-05-23T13:59:26.055Z,28.53
2023-05-23T14:04:32.815Z,28.05
2023-05-23T14:09:38.366Z,27.52
2023-05-23T14:14:43.793Z,27.25
2023-05-23T14:19:49.286Z,27.04
2023-05-23T14:24:54.922Z,26.90
2023-05-23T14:30:00.340Z,26.63
2023-05-23T14:35:07.368Z,26.51
2023-05-23T14:40:14.467Z,26.44
2023-05-23T14:45:20.364Z,26.14
2023-05-23T14:50:27.350Z,26.08
2023-05-23T14:55:33.170Z,25.96
2023-05-23T15:00:40.982Z,25.88
2023-05-23T15:05:48.581Z,25.79
2023-05-23T15:10:54.806Z,25.77
2023-05-23T15:16:00.559Z,25.61
2023-05-23T15:21:06.347Z,25.27
2023-05-23T15:26:12.230Z,25.01
2023-05-23T15:31:17.588Z,24.97
2023-05-23T15:36:23.333Z,24.90
2023-05-23T15:41:29.056Z,24.80
2023-05-23T15:46:40.983Z,24.66
2023-05-23T15:51:58.535Z,24.59
2023-05-23T15:57:04.656Z,24.65
2023-05-23T16:02:10.937Z,24.67
2023-05-23T16:07:18.369Z,24.73
2023-05-23T16:12:24.081Z,24.72
2023-05-23T16:17:29.494Z,24.70
2023-05-23T16:22:35.412Z,24.73
2023-05-23T16:27:41.415Z,24.65
2023-05-23T16:32:47.129Z,24.57
2023-05-23T16:37:53.155Z,24.46
2023-05-23T16:42:58.968Z,24.37
2023-05-23T16:48:04.458Z,24.26
2023-05-23T16:53:10.153Z,24.15
2023-05-23T16:58:18.004Z,23.99
2023-05-23T17:03:26.001Z,23.80
2023-05-23T17:08:31.572Z,23.59
2023-05-23T17:13:37.304Z,23.42
2023-05-23T17:18:43.041Z,23.23
2023-05-23T17:23:49.478Z,23.01
2023-05-23T17:28:55.725Z,22.84
2023-05-23T17:34:01.218Z,22.67
2023-05-23T17:39:07.061Z,22.51
2023-05-23T17:44:13.436Z,22.36
2023-05-23T17:49:19.654Z,22.19
2023-05-23T17:54:26.134Z,22.05
2023-05-23T17:59:32.841Z,21.89
2023-05-23T18:04:38.695Z,21.74
2023-05-23T18:09:45.821Z,21.55
2023-05-23T18:14:52.232Z,21.38
2023-05-23T18:19:58.079Z,21.19
2023-05-23T18:25:06.132Z,21.03
2023-05-23T18:30:13.414Z,20.90
2023-05-23T18:35:20.608Z,20.77
2023-05-23T18:40:27.134Z,20.66
2023-05-23T18:45:33.086Z,20.55
2023-05-23T18:50:38.683Z,20.45
2023-05-23T18:55:44.603Z,20.33
2023-05-23T19:00:50.837Z,20.29
2023-05-23T19:06:02.244Z,20.24
2023-05-23T19:11:10.598Z,20.17
2023-05-23T19:16:17.484Z,20.00
2023-05-23T19:21:23.167Z,19.89
2023-05-23T19:26:29.031Z,19.76
2023-05-23T19:31:34.816Z,19.65
2023-05-23T19:36:41.924Z,19.55
2023-05-23T19:41:47.396Z,19.48
2023-05-23T19:46:53.888Z,19.40
2023-05-23T19:52:00.408Z,19.33
2023-05-23T19:57:06.804Z,19.26
2023-05-23T20:02:12.713Z,19.18
2023-05-23T20:07:18.922Z,19.09
2023-05-23T20:12:25.120Z,19.01
2023-05-23T20:17:31.946Z,18.94
2023-05-23T20:22:38.287Z,18.88
2023-05-23T20:39:17.178Z,18.66
2023-05-23T20:44:23.260Z,18.59
2023-05-23T20:49:28.861Z,18.52
2023-05-23T20:54:35.287Z,18.46
2023-05-23T20:59:41.010Z,18.38
2023-05-23T21:04:46.834Z,18.31
2023-05-23T21:09:52.235Z,18.26
2023-05-23T21:14:57.610Z,18.20
2023-05-23T21:20:03.223Z,18.14
2023-05-23T21:25:09.594Z,18.08
2023-05-23T21:30:15.798Z,18.00
2023-05-23T21:35:21.359Z,17.96
2023-05-23T21:40:27.856Z,17.91
2023-05-23T21:45:33.505Z,17.88
2023-05-23T21:50:39.232Z,17.85
2023-05-23T21:55:45.823Z,17.84
2023-05-23T22:00:51.587Z,17.81
2023-05-23T22:05:56.986Z,17.79
2023-05-23T22:11:04.457Z,17.77
2023-05-23T22:16:09.906Z,17.73
2023-05-23T22:21:15.551Z,17.70
2023-05-23T22:26:22.026Z,17.67
2023-05-23T22:31:29.102Z,17.64
2023-05-23T22:36:34.835Z,17.61
2023-05-23T22:41:40.528Z,17.61
2023-05-23T22:46:46.018Z,17.60
2023-05-23T22:51:52.029Z,17.60
2023-05-23T22:56:57.497Z,17.57
2023-05-23T23:02:02.955Z,17.54
2023-05-23T23:07:08.798Z,17.53
2023-05-23T23:12:14.356Z,17.50
2023-05-23T23:17:19.962Z,17.46
2023-05-23T23:22:25.416Z,17.41
2023-05-23T23:27:32.365Z,17.34
2023-05-23T23:32:37.808Z,17.23
2023-05-23T23:37:43.217Z,17.11
2023-05-23T23:42:48.594Z,17.05
2023-05-23T23:47:54.500Z,16.97
2023-05-23T23:53:00.139Z,16.80
2023-05-23T23:58:05.982Z,16.64
